JAL26 VHHH-RJTT
Flight info
| Callsign | JAL26 |
|---|---|
| Flight time | N/A |
| Altitude | 39000 |
| Route | DALOL V631 ENVAR M750 BILLY Y21 AKSEL |
| Aircraft | A35K/H-SDE2E3GHIJ3J4J5LM1ORWXY/LB1D1 |
Departure
| Time | 2026-05-04 03:30 |
|---|---|
| Airport | Hong Kong International Airport (VHHH) |
Arrival
| Time | N/A |
|---|---|
| Airport | Tokyo Haneda International Airport (RJTT) |
| Time | Latitude | Longitude | Altitude | Speed | Heading |
|---|---|---|---|---|---|
| 2026-05-04 02:39 | 22.31693 | 113.93301 | 41 ft | 0 kts | 71° |
| 2026-05-04 03:14 | 22.31688 | 113.93285 | 41 ft | 4 kts | 70° |
| 2026-05-04 03:14 | 22.31679 | 113.93258 | 39 ft | 4 kts | 72° |
| 2026-05-04 03:14 | 22.31672 | 113.93230 | 38 ft | 4 kts | 84° |
| 2026-05-04 03:15 | 22.31671 | 113.93207 | 41 ft | 4 kts | 73° |
| 2026-05-04 03:15 | 22.31656 | 113.93188 | 36 ft | 4 kts | 22° |
| 2026-05-04 03:15 | 22.31637 | 113.93179 | 39 ft | 3 kts | 26° |
| 2026-05-04 03:15 | 22.31614 | 113.93164 | 39 ft | 4 kts | 50° |
| 2026-05-04 03:16 | 22.31604 | 113.93144 | 40 ft | 3 kts | 71° |
| 2026-05-04 03:16 | 22.31595 | 113.93116 | 38 ft | 4 kts | 71° |
| 2026-05-04 03:16 | 22.31589 | 113.93099 | 37 ft | 0 kts | 71° |
| 2026-05-04 03:20 | 22.31593 | 113.93111 | 38 ft | 3 kts | 71° |
| 2026-05-04 03:20 | 22.31606 | 113.93145 | 39 ft | 6 kts | 62° |
| 2026-05-04 03:20 | 22.31642 | 113.93184 | 40 ft | 9 kts | 34° |
| 2026-05-04 03:20 | 22.31705 | 113.93196 | 41 ft | 10 kts | 342° |
| 2026-05-04 03:21 | 22.31772 | 113.93158 | 41 ft | 12 kts | 333° |
| 2026-05-04 03:21 | 22.31847 | 113.93122 | 41 ft | 13 kts | 326° |
| 2026-05-04 03:21 | 22.31860 | 113.93034 | 41 ft | 14 kts | 253° |
| 2026-05-04 03:21 | 22.31827 | 113.92926 | 41 ft | 16 kts | 251° |
| 2026-05-04 03:22 | 22.31787 | 113.92800 | 41 ft | 19 kts | 250° |
| 2026-05-04 03:22 | 22.31740 | 113.92655 | 41 ft | 21 kts | 250° |
| 2026-05-04 03:22 | 22.31690 | 113.92503 | 41 ft | 21 kts | 251° |
| 2026-05-04 03:22 | 22.31647 | 113.92369 | 41 ft | 20 kts | 251° |
| 2026-05-04 03:23 | 22.31603 | 113.92234 | 41 ft | 16 kts | 251° |
| 2026-05-04 03:23 | 22.31571 | 113.92135 | 41 ft | 12 kts | 250° |
| 2026-05-04 03:23 | 22.31555 | 113.92067 | 41 ft | 9 kts | 274° |
| 2026-05-04 03:23 | 22.31600 | 113.92012 | 41 ft | 10 kts | 308° |
| 2026-05-04 03:24 | 22.31599 | 113.91931 | 41 ft | 12 kts | 251° |
| 2026-05-04 03:24 | 22.31568 | 113.91832 | 41 ft | 15 kts | 251° |
| 2026-05-04 03:24 | 22.31530 | 113.91714 | 41 ft | 18 kts | 250° |
| 2026-05-04 03:24 | 22.31486 | 113.91578 | 41 ft | 21 kts | 251° |
| 2026-05-04 03:25 | 22.31437 | 113.91427 | 41 ft | 19 kts | 251° |
| 2026-05-04 03:25 | 22.31390 | 113.91284 | 41 ft | 21 kts | 250° |
| 2026-05-04 03:25 | 22.31339 | 113.91126 | 41 ft | 21 kts | 251° |
| 2026-05-04 03:25 | 22.31291 | 113.90976 | 41 ft | 22 kts | 251° |
| 2026-05-04 03:26 | 22.31240 | 113.90818 | 41 ft | 23 kts | 251° |
| 2026-05-04 03:26 | 22.31194 | 113.90675 | 41 ft | 19 kts | 250° |
| 2026-05-04 03:26 | 22.31153 | 113.90548 | 41 ft | 16 kts | 251° |
| 2026-05-04 03:26 | 22.31116 | 113.90434 | 41 ft | 15 kts | 251° |
| 2026-05-04 03:27 | 22.31084 | 113.90334 | 41 ft | 13 kts | 251° |
| 2026-05-04 03:27 | 22.31051 | 113.90233 | 41 ft | 16 kts | 251° |
| 2026-05-04 03:27 | 22.31022 | 113.90142 | 41 ft | 12 kts | 251° |
| 2026-05-04 03:27 | 22.30992 | 113.90050 | 41 ft | 14 kts | 251° |
| 2026-05-04 03:28 | 22.30961 | 113.89951 | 41 ft | 8 kts | 253° |
| 2026-05-04 03:28 | 22.30973 | 113.89896 | 41 ft | 7 kts | 328° |
| 2026-05-04 03:28 | 22.31031 | 113.89876 | 41 ft | 10 kts | 342° |
| 2026-05-04 03:28 | 22.31099 | 113.89863 | 41 ft | 10 kts | 13° |
| 2026-05-04 03:29 | 22.31133 | 113.89916 | 41 ft | 6 kts | 71° |
| 2026-05-04 03:29 | 22.31152 | 113.89979 | 41 ft | 16 kts | 71° |
| 2026-05-04 03:29 | 22.31237 | 113.90239 | 42 ft | 69 kts | 69° |
| 2026-05-04 03:29 | 22.31480 | 113.90990 | 42 ft | 137 kts | 71° |
| 2026-05-04 03:30 | 22.31852 | 113.92124 | 297 ft | 172 kts | 70° |
| 2026-05-04 03:30 | 22.32247 | 113.93308 | 1280 ft | 165 kts | 69° |
| 2026-05-04 03:30 | 22.32647 | 113.94525 | 1795 ft | 186 kts | 69° |
| 2026-05-04 03:30 | 22.33114 | 113.95946 | 2169 ft | 211 kts | 70° |
| 2026-05-04 03:31 | 22.33490 | 113.97508 | 2870 ft | 217 kts | 79° |
| 2026-05-04 03:31 | 22.33754 | 113.99134 | 3676 ft | 223 kts | 82° |
| 2026-05-04 03:31 | 22.33803 | 114.00855 | 4248 ft | 236 kts | 97° |
| 2026-05-04 03:31 | 22.33343 | 114.02555 | 4788 ft | 243 kts | 118° |
| 2026-05-04 03:32 | 22.32304 | 114.04010 | 5457 ft | 247 kts | 142° |
| 2026-05-04 03:32 | 22.30901 | 114.05073 | 6300 ft | 247 kts | 151° |
| 2026-05-04 03:32 | 22.29408 | 114.06032 | 7088 ft | 251 kts | 153° |
| 2026-05-04 03:32 | 22.27891 | 114.06997 | 7918 ft | 255 kts | 153° |
| 2026-05-04 03:33 | 22.26348 | 114.07979 | 8752 ft | 259 kts | 155° |
| 2026-05-04 03:33 | 22.24677 | 114.08642 | 9550 ft | 255 kts | 178° |
| 2026-05-04 03:33 | 22.22890 | 114.08737 | 10201 ft | 264 kts | 186° |
| 2026-05-04 03:33 | 22.20977 | 114.08697 | 10573 ft | 286 kts | 187° |
| 2026-05-04 03:34 | 22.18905 | 114.08668 | 10932 ft | 309 kts | 183° |
| 2026-05-04 03:34 | 22.16687 | 114.08981 | 11284 ft | 336 kts | 170° |
| 2026-05-04 03:34 | 22.14500 | 114.10104 | 11623 ft | 364 kts | 146° |
| 2026-05-04 03:34 | 22.12785 | 114.12196 | 12201 ft | 382 kts | 125° |
| 2026-05-04 03:35 | 22.11456 | 114.14706 | 12900 ft | 388 kts | 122° |
| 2026-05-04 03:35 | 22.10154 | 114.17273 | 13626 ft | 393 kts | 122° |
| 2026-05-04 03:35 | 22.08820 | 114.19862 | 14278 ft | 397 kts | 123° |
| 2026-05-04 03:35 | 22.07457 | 114.22473 | 14886 ft | 402 kts | 123° |
| 2026-05-04 03:36 | 22.06071 | 114.25107 | 15501 ft | 406 kts | 124° |
| 2026-05-04 03:36 | 22.04668 | 114.27764 | 16109 ft | 410 kts | 124° |
| 2026-05-04 03:36 | 22.03261 | 114.30422 | 16711 ft | 415 kts | 124° |
| 2026-05-04 03:36 | 22.01825 | 114.33129 | 17335 ft | 419 kts | 124° |
| 2026-05-04 03:37 | 22.00368 | 114.35871 | 17956 ft | 423 kts | 124° |
| 2026-05-04 03:37 | 21.98899 | 114.38634 | 18542 ft | 427 kts | 124° |
| 2026-05-04 03:37 | 21.97417 | 114.41421 | 19116 ft | 430 kts | 124° |
| 2026-05-04 03:37 | 21.95921 | 114.44232 | 19654 ft | 434 kts | 124° |
| 2026-05-04 03:38 | 21.94412 | 114.47064 | 20200 ft | 438 kts | 124° |
| 2026-05-04 03:38 | 21.92888 | 114.49923 | 20731 ft | 442 kts | 124° |
| 2026-05-04 03:38 | 21.91347 | 114.52813 | 21269 ft | 447 kts | 124° |
| 2026-05-04 03:38 | 21.89793 | 114.55726 | 21804 ft | 451 kts | 124° |
| 2026-05-04 03:39 | 21.88236 | 114.58644 | 22329 ft | 455 kts | 124° |
| 2026-05-04 03:39 | 21.86651 | 114.61612 | 22840 ft | 460 kts | 124° |
| 2026-05-04 03:39 | 21.85044 | 114.64618 | 23350 ft | 464 kts | 124° |
| 2026-05-04 03:39 | 21.83428 | 114.67642 | 23807 ft | 468 kts | 124° |
| 2026-05-04 03:40 | 21.81797 | 114.70690 | 24240 ft | 472 kts | 124° |
| 2026-05-04 03:40 | 21.80154 | 114.73762 | 24692 ft | 475 kts | 124° |
| 2026-05-04 03:40 | 21.78500 | 114.76851 | 25197 ft | 479 kts | 124° |
| 2026-05-04 03:40 | 21.76835 | 114.79974 | 25665 ft | 483 kts | 123° |
| 2026-05-04 03:41 | 21.75393 | 114.83266 | 26153 ft | 492 kts | 113° |
| 2026-05-04 03:41 | 21.74529 | 114.86852 | 26643 ft | 500 kts | 100° |
| 2026-05-04 03:41 | 21.74271 | 114.89320 | 26976 ft | 503 kts | 96° |
| 2026-05-04 03:41 | 21.74119 | 114.93109 | 27478 ft | 508 kts | 92° |
| 2026-05-04 03:42 | 21.74145 | 114.98181 | 28132 ft | 513 kts | 90° |
| 2026-05-04 03:42 | 21.74218 | 115.02045 | 28585 ft | 518 kts | 90° |
| 2026-05-04 03:42 | 21.74265 | 115.04672 | 28866 ft | 522 kts | 90° |
| 2026-05-04 03:42 | 21.74317 | 115.08545 | 29329 ft | 525 kts | 90° |
| 2026-05-04 03:43 | 21.74346 | 115.12485 | 29797 ft | 529 kts | 91° |
| 2026-05-04 03:43 | 21.74357 | 115.16456 | 30219 ft | 533 kts | 91° |
| 2026-05-04 03:43 | 21.74355 | 115.20452 | 30597 ft | 536 kts | 91° |
| 2026-05-04 03:43 | 21.74350 | 115.24481 | 30980 ft | 539 kts | 91° |
| 2026-05-04 03:44 | 21.74341 | 115.28525 | 31345 ft | 542 kts | 91° |
| 2026-05-04 03:44 | 21.74329 | 115.32594 | 31718 ft | 545 kts | 91° |
| 2026-05-04 03:44 | 21.74316 | 115.36675 | 32064 ft | 548 kts | 91° |
| 2026-05-04 03:44 | 21.74303 | 115.40792 | 32401 ft | 551 kts | 91° |
| 2026-05-04 03:45 | 21.74290 | 115.44918 | 32744 ft | 553 kts | 91° |
| 2026-05-04 03:45 | 21.74277 | 115.49065 | 33062 ft | 556 kts | 90° |
| 2026-05-04 03:45 | 21.74263 | 115.53226 | 33523 ft | 555 kts | 90° |
| 2026-05-04 03:45 | 21.74248 | 115.57383 | 33999 ft | 554 kts | 90° |
| 2026-05-04 03:46 | 21.74236 | 115.61526 | 34394 ft | 553 kts | 90° |
| 2026-05-04 03:46 | 21.74222 | 115.65658 | 34769 ft | 552 kts | 90° |
| 2026-05-04 03:46 | 21.74206 | 115.69782 | 35242 ft | 549 kts | 90° |
| 2026-05-04 03:46 | 21.74187 | 115.73885 | 35621 ft | 549 kts | 90° |
| 2026-05-04 03:47 | 21.74168 | 115.77992 | 35943 ft | 549 kts | 90° |
| 2026-05-04 03:47 | 21.74148 | 115.82096 | 36282 ft | 549 kts | 90° |
| 2026-05-04 03:47 | 21.74128 | 115.86153 | 36612 ft | 549 kts | 91° |
| 2026-05-04 03:47 | 21.74106 | 115.90315 | 36948 ft | 549 kts | 91° |
| 2026-05-04 03:48 | 21.74085 | 115.94364 | 37250 ft | 548 kts | 91° |
| 2026-05-04 03:48 | 21.74061 | 115.98468 | 37587 ft | 548 kts | 91° |
| 2026-05-04 03:48 | 21.74037 | 116.02573 | 37906 ft | 548 kts | 91° |
| 2026-05-04 03:48 | 21.74012 | 116.06675 | 38225 ft | 547 kts | 91° |
| 2026-05-04 03:49 | 21.73986 | 116.10763 | 38517 ft | 547 kts | 91° |
| 2026-05-04 03:49 | 21.73958 | 116.14856 | 38778 ft | 547 kts | 91° |
| 2026-05-04 03:49 | 21.73930 | 116.18942 | 38981 ft | 547 kts | 91° |
| 2026-05-04 03:50 | 21.73871 | 116.27139 | 39048 ft | 547 kts | 91° |
| 2026-05-04 03:50 | 21.73808 | 116.35271 | 39048 ft | 546 kts | 91° |
| 2026-05-04 03:51 | 21.73741 | 116.43437 | 39045 ft | 546 kts | 91° |
| 2026-05-04 03:51 | 21.73669 | 116.51613 | 39048 ft | 546 kts | 91° |
| 2026-05-04 03:52 | 21.73594 | 116.59787 | 39044 ft | 546 kts | 91° |
| 2026-05-04 03:52 | 21.73515 | 116.67964 | 39042 ft | 546 kts | 91° |
| 2026-05-04 03:53 | 21.73576 | 116.76079 | 39044 ft | 546 kts | 84° |
| 2026-05-04 03:53 | 21.74225 | 116.80099 | 39050 ft | 545 kts | 73° |
| 2026-05-04 03:53 | 21.75387 | 116.83974 | 39041 ft | 545 kts | 69° |
| 2026-05-04 03:54 | 21.78073 | 116.91608 | 39049 ft | 546 kts | 66° |
| 2026-05-04 03:54 | 21.80877 | 116.99214 | 39040 ft | 545 kts | 66° |
| 2026-05-04 03:55 | 21.83656 | 117.06809 | 39037 ft | 545 kts | 67° |
| 2026-05-04 03:55 | 21.86411 | 117.14425 | 39040 ft | 546 kts | 67° |
| 2026-05-04 03:56 | 21.89136 | 117.21998 | 39042 ft | 545 kts | 67° |
| 2026-05-04 03:56 | 21.91873 | 117.29621 | 39042 ft | 544 kts | 67° |
| 2026-05-04 03:57 | 21.94603 | 117.37229 | 39049 ft | 545 kts | 67° |
| 2026-05-04 03:57 | 21.97337 | 117.44861 | 39045 ft | 547 kts | 67° |
| 2026-05-04 03:58 | 22.02414 | 117.55744 | 39044 ft | 542 kts | 56° |
| 2026-05-04 03:58 | 22.06338 | 117.62688 | 39042 ft | 542 kts | 55° |
| 2026-05-04 03:59 | 22.10302 | 117.69619 | 39046 ft | 542 kts | 55° |
| 2026-05-04 03:59 | 22.14245 | 117.76548 | 39044 ft | 542 kts | 56° |
| 2026-05-04 04:00 | 22.18185 | 117.83507 | 39047 ft | 544 kts | 56° |
| 2026-05-04 04:00 | 22.22107 | 117.90448 | 39051 ft | 545 kts | 56° |
| 2026-05-04 04:01 | 22.26048 | 117.97436 | 39050 ft | 545 kts | 56° |
| 2026-05-04 04:01 | 22.30008 | 118.04411 | 39048 ft | 544 kts | 55° |
| 2026-05-04 04:02 | 22.34052 | 118.11318 | 39047 ft | 543 kts | 54° |
| 2026-05-04 04:02 | 22.38104 | 118.18220 | 39054 ft | 543 kts | 54° |
| 2026-05-04 04:03 | 22.42105 | 118.25107 | 39034 ft | 545 kts | 55° |
| 2026-05-04 04:03 | 22.46073 | 118.32116 | 39035 ft | 546 kts | 56° |
| 2026-05-04 04:04 | 22.50021 | 118.39130 | 39044 ft | 545 kts | 56° |
| 2026-05-04 04:04 | 22.53954 | 118.46105 | 39044 ft | 545 kts | 56° |
| 2026-05-04 04:05 | 22.57900 | 118.53100 | 39045 ft | 544 kts | 56° |
| 2026-05-04 04:05 | 22.61869 | 118.60078 | 39042 ft | 544 kts | 55° |
| 2026-05-04 04:06 | 22.65852 | 118.67049 | 39040 ft | 544 kts | 55° |
| 2026-05-04 04:06 | 22.69831 | 118.74037 | 39043 ft | 543 kts | 55° |
| 2026-05-04 04:07 | 22.73760 | 118.80956 | 39040 ft | 543 kts | 55° |
| 2026-05-04 04:07 | 22.77718 | 118.87937 | 39040 ft | 543 kts | 55° |
| 2026-05-04 04:08 | 22.81670 | 118.94919 | 39029 ft | 544 kts | 55° |
| 2026-05-04 04:08 | 22.85632 | 119.01925 | 39036 ft | 544 kts | 55° |
| 2026-05-04 04:09 | 22.89584 | 119.08927 | 39036 ft | 544 kts | 55° |
| 2026-05-04 04:09 | 22.93537 | 119.15938 | 39034 ft | 544 kts | 55° |
| 2026-05-04 04:10 | 22.97458 | 119.22901 | 39037 ft | 544 kts | 55° |
| 2026-05-04 04:10 | 23.01398 | 119.29907 | 39030 ft | 544 kts | 55° |
| 2026-05-04 04:11 | 23.05350 | 119.36944 | 39028 ft | 546 kts | 55° |
| 2026-05-04 04:11 | 23.09297 | 119.43983 | 39030 ft | 546 kts | 55° |
| 2026-05-04 04:12 | 23.13249 | 119.51042 | 39026 ft | 546 kts | 56° |
| 2026-05-04 04:12 | 23.17193 | 119.58095 | 39032 ft | 545 kts | 56° |
| 2026-05-04 04:13 | 23.21124 | 119.65136 | 39032 ft | 544 kts | 55° |
| 2026-05-04 04:13 | 23.25035 | 119.72137 | 39018 ft | 547 kts | 55° |
| 2026-05-04 04:14 | 23.28990 | 119.79228 | 39021 ft | 547 kts | 56° |
| 2026-05-04 04:14 | 23.32929 | 119.86305 | 39017 ft | 547 kts | 56° |
| 2026-05-04 04:15 | 23.37218 | 119.93102 | 39022 ft | 540 kts | 43° |
| 2026-05-04 04:15 | 23.42495 | 119.98874 | 39026 ft | 537 kts | 39° |
| 2026-05-04 04:16 | 23.47935 | 120.04466 | 39011 ft | 538 kts | 38° |
| 2026-05-04 04:16 | 23.53406 | 120.10053 | 39008 ft | 539 kts | 38° |
| 2026-05-04 04:17 | 23.58831 | 120.15630 | 39006 ft | 539 kts | 38° |
| 2026-05-04 04:17 | 23.64275 | 120.21253 | 39007 ft | 538 kts | 39° |
| 2026-05-04 04:18 | 23.69721 | 120.26889 | 39013 ft | 540 kts | 38° |
| 2026-05-04 04:18 | 23.75189 | 120.32552 | 39012 ft | 541 kts | 39° |
| 2026-05-04 04:19 | 23.80613 | 120.38177 | 39014 ft | 541 kts | 39° |
| 2026-05-04 04:19 | 23.86084 | 120.43859 | 39015 ft | 541 kts | 39° |
| 2026-05-04 04:20 | 23.91543 | 120.49534 | 39018 ft | 542 kts | 39° |
| 2026-05-04 04:20 | 23.96986 | 120.55253 | 39023 ft | 543 kts | 39° |
| 2026-05-04 04:21 | 24.02428 | 120.61010 | 39030 ft | 543 kts | 39° |
| 2026-05-04 04:21 | 24.07826 | 120.66723 | 39039 ft | 543 kts | 39° |
| 2026-05-04 04:22 | 24.13269 | 120.72483 | 39049 ft | 544 kts | 38° |
| 2026-05-04 04:22 | 24.18719 | 120.78253 | 39047 ft | 546 kts | 38° |
| 2026-05-04 04:23 | 24.24181 | 120.84044 | 39054 ft | 546 kts | 38° |
| 2026-05-04 04:23 | 24.29636 | 120.89833 | 39054 ft | 545 kts | 38° |
| 2026-05-04 04:24 | 24.35090 | 120.95624 | 39059 ft | 546 kts | 38° |
| 2026-05-04 04:24 | 24.40502 | 121.01400 | 39059 ft | 548 kts | 41° |
| 2026-05-04 04:25 | 24.45423 | 121.07830 | 39089 ft | 551 kts | 47° |
| 2026-05-04 04:25 | 24.50207 | 121.14429 | 39103 ft | 552 kts | 47° |
| 2026-05-04 04:26 | 24.54980 | 121.21048 | 39101 ft | 552 kts | 47° |
| 2026-05-04 04:26 | 24.59781 | 121.27670 | 39088 ft | 554 kts | 47° |
| 2026-05-04 04:27 | 24.64554 | 121.34265 | 39110 ft | 553 kts | 47° |
| 2026-05-04 04:27 | 24.69343 | 121.40903 | 39109 ft | 553 kts | 47° |
| 2026-05-04 04:28 | 24.74123 | 121.47534 | 39117 ft | 553 kts | 47° |
| 2026-05-04 04:28 | 24.78876 | 121.54139 | 39124 ft | 554 kts | 47° |
| 2026-05-04 04:29 | 24.83646 | 121.60783 | 39134 ft | 551 kts | 47° |
| 2026-05-04 04:29 | 24.88395 | 121.67399 | 39134 ft | 551 kts | 47° |
| 2026-05-04 04:30 | 24.92395 | 121.72868 | 39137 ft | 550 kts | 45° |
| 2026-05-04 04:30 | 24.97426 | 121.79222 | 39133 ft | 551 kts | 44° |
| 2026-05-04 04:31 | 25.02515 | 121.85570 | 39123 ft | 552 kts | 44° |
| 2026-05-04 04:31 | 25.07573 | 121.91963 | 39123 ft | 552 kts | 45° |
| 2026-05-04 04:32 | 25.12593 | 121.98381 | 39118 ft | 552 kts | 45° |
| 2026-05-04 04:32 | 25.17563 | 122.04788 | 39124 ft | 554 kts | 45° |
| 2026-05-04 04:33 | 25.22559 | 122.11286 | 39120 ft | 555 kts | 45° |
| 2026-05-04 04:33 | 25.27556 | 122.17791 | 39120 ft | 555 kts | 45° |
| 2026-05-04 04:34 | 25.32553 | 122.24294 | 39117 ft | 554 kts | 45° |
| 2026-05-04 04:34 | 25.37551 | 122.30803 | 39119 ft | 556 kts | 45° |
| 2026-05-04 04:35 | 25.42556 | 122.37329 | 39116 ft | 556 kts | 45° |
| 2026-05-04 04:35 | 25.47523 | 122.43818 | 39118 ft | 556 kts | 45° |
| 2026-05-04 04:36 | 25.52549 | 122.50392 | 39121 ft | 555 kts | 45° |
| 2026-05-04 04:36 | 25.57534 | 122.56872 | 39123 ft | 556 kts | 45° |
| 2026-05-04 04:37 | 25.67588 | 122.69938 | 39122 ft | 557 kts | 45° |
| 2026-05-04 04:38 | 25.72608 | 122.76486 | 39121 ft | 557 kts | 45° |
| 2026-05-04 04:38 | 25.77634 | 122.83054 | 39128 ft | 558 kts | 45° |
| 2026-05-04 04:39 | 25.82628 | 122.89588 | 39116 ft | 559 kts | 45° |
| 2026-05-04 04:39 | 25.87656 | 122.96177 | 39124 ft | 559 kts | 45° |
| 2026-05-04 04:40 | 25.92673 | 123.02769 | 39124 ft | 559 kts | 45° |
| 2026-05-04 04:40 | 25.97691 | 123.09370 | 39127 ft | 560 kts | 45° |
| 2026-05-04 04:41 | 26.02727 | 123.15996 | 39120 ft | 560 kts | 45° |
| 2026-05-04 04:41 | 26.07751 | 123.22622 | 39124 ft | 560 kts | 45° |
| 2026-05-04 04:42 | 26.12775 | 123.29258 | 39147 ft | 560 kts | 45° |
| 2026-05-04 04:42 | 26.17771 | 123.35864 | 39127 ft | 562 kts | 45° |
| 2026-05-04 04:43 | 26.22804 | 123.42532 | 39126 ft | 562 kts | 45° |
| 2026-05-04 04:43 | 26.27843 | 123.49218 | 39126 ft | 562 kts | 45° |
| 2026-05-04 04:44 | 26.32870 | 123.55897 | 39136 ft | 562 kts | 45° |
| 2026-05-04 04:44 | 26.37876 | 123.62555 | 39124 ft | 565 kts | 45° |
| 2026-05-04 04:45 | 26.42922 | 123.69281 | 39121 ft | 565 kts | 45° |
| 2026-05-04 04:47 | 26.60576 | 123.92886 | 39135 ft | 567 kts | 45° |
| 2026-05-04 04:47 | 26.65587 | 123.99613 | 39130 ft | 566 kts | 45° |
| 2026-05-04 04:48 | 26.70628 | 124.06373 | 39134 ft | 565 kts | 45° |
| 2026-05-04 04:49 | 26.83249 | 124.23272 | 39118 ft | 565 kts | 45° |
| 2026-05-04 04:49 | 26.88283 | 124.30039 | 39146 ft | 565 kts | 45° |
| 2026-05-04 04:50 | 26.93287 | 124.36774 | 39133 ft | 567 kts | 45° |
| 2026-05-04 04:50 | 26.98328 | 124.43571 | 39133 ft | 567 kts | 45° |
| 2026-05-04 04:51 | 27.03377 | 124.50379 | 39128 ft | 567 kts | 45° |
| 2026-05-04 04:51 | 27.08416 | 124.57190 | 39141 ft | 567 kts | 45° |
| 2026-05-04 04:52 | 27.13458 | 124.64014 | 39135 ft | 569 kts | 45° |
| 2026-05-04 04:52 | 27.18514 | 124.70868 | 39137 ft | 569 kts | 45° |
| 2026-05-04 04:53 | 27.23525 | 124.77672 | 39132 ft | 569 kts | 45° |
| 2026-05-04 04:53 | 27.28577 | 124.84542 | 39138 ft | 570 kts | 45° |
| 2026-05-04 04:54 | 27.33635 | 124.91428 | 39138 ft | 570 kts | 45° |
| 2026-05-04 04:54 | 27.38692 | 124.98327 | 39139 ft | 570 kts | 45° |
| 2026-05-04 04:55 | 27.43743 | 125.05206 | 39143 ft | 570 kts | 45° |
| 2026-05-04 04:55 | 27.48810 | 125.12024 | 39140 ft | 571 kts | 45° |
| 2026-05-04 04:56 | 27.53917 | 125.18900 | 39136 ft | 572 kts | 45° |
| 2026-05-04 04:56 | 27.59009 | 125.25783 | 39113 ft | 571 kts | 45° |
| 2026-05-04 04:57 | 27.64106 | 125.32695 | 39131 ft | 573 kts | 45° |
| 2026-05-04 04:57 | 27.69167 | 125.39569 | 39133 ft | 573 kts | 45° |
| 2026-05-04 04:58 | 27.74266 | 125.46507 | 39136 ft | 573 kts | 45° |
| 2026-05-04 04:58 | 27.79357 | 125.53444 | 39139 ft | 574 kts | 45° |
| 2026-05-04 04:59 | 27.84457 | 125.60403 | 39137 ft | 574 kts | 45° |
| 2026-05-04 04:59 | 27.89545 | 125.67359 | 39140 ft | 574 kts | 45° |
| 2026-05-04 05:00 | 27.94638 | 125.74332 | 39180 ft | 575 kts | 45° |
| 2026-05-04 05:01 | 28.02260 | 125.84787 | 39148 ft | 577 kts | 45° |
| 2026-05-04 05:01 | 28.07365 | 125.91806 | 39143 ft | 577 kts | 45° |
| 2026-05-04 05:02 | 28.12468 | 125.98834 | 39160 ft | 577 kts | 45° |
| 2026-05-04 05:02 | 28.17545 | 126.05833 | 39146 ft | 579 kts | 45° |
| 2026-05-04 05:03 | 28.22654 | 126.12892 | 39148 ft | 580 kts | 45° |
| 2026-05-04 05:04 | 28.32904 | 126.27091 | 39142 ft | 581 kts | 45° |
| 2026-05-04 05:04 | 28.37995 | 126.34160 | 39149 ft | 581 kts | 45° |
| 2026-05-04 05:06 | 28.58415 | 126.62636 | 39149 ft | 580 kts | 46° |
| 2026-05-04 05:07 | 28.63469 | 126.69713 | 39156 ft | 580 kts | 45° |
| 2026-05-04 05:07 | 28.68568 | 126.76864 | 39132 ft | 581 kts | 46° |
| 2026-05-04 05:09 | 28.91443 | 127.09103 | 39140 ft | 581 kts | 46° |
| 2026-05-04 05:10 | 28.96522 | 127.16296 | 39135 ft | 581 kts | 46° |
| 2026-05-04 05:10 | 29.01604 | 127.23504 | 39116 ft | 582 kts | 46° |
| 2026-05-04 05:11 | 29.06650 | 127.30674 | 39134 ft | 582 kts | 46° |
| 2026-05-04 05:11 | 29.11716 | 127.37885 | 39136 ft | 582 kts | 46° |
| 2026-05-04 05:12 | 29.16788 | 127.45117 | 39130 ft | 582 kts | 46° |
| 2026-05-04 05:12 | 29.21857 | 127.52358 | 39132 ft | 582 kts | 46° |
| 2026-05-04 05:13 | 29.26884 | 127.59553 | 39135 ft | 582 kts | 46° |
| 2026-05-04 05:13 | 29.31944 | 127.66805 | 39124 ft | 583 kts | 46° |
| 2026-05-04 05:14 | 29.37008 | 127.74077 | 39113 ft | 583 kts | 46° |
| 2026-05-04 05:14 | 29.42061 | 127.81349 | 39139 ft | 583 kts | 46° |
| 2026-05-04 05:15 | 29.47123 | 127.88640 | 39122 ft | 584 kts | 46° |
| 2026-05-04 05:15 | 29.52187 | 127.95951 | 39104 ft | 584 kts | 46° |
| 2026-05-04 05:16 | 29.57240 | 128.03258 | 39140 ft | 583 kts | 46° |
| 2026-05-04 05:16 | 29.62300 | 128.10578 | 39113 ft | 585 kts | 46° |
| 2026-05-04 05:17 | 29.67332 | 128.17870 | 39113 ft | 585 kts | 46° |
| 2026-05-04 05:17 | 29.72387 | 128.25213 | 39127 ft | 585 kts | 46° |
| 2026-05-04 05:18 | 29.77436 | 128.32560 | 39110 ft | 586 kts | 46° |
| 2026-05-04 05:18 | 29.81638 | 128.38685 | 39110 ft | 586 kts | 47° |
| 2026-05-04 05:19 | 29.86690 | 128.46061 | 39117 ft | 586 kts | 47° |
| 2026-05-04 05:19 | 29.91758 | 128.53470 | 39117 ft | 590 kts | 47° |
| 2026-05-04 05:20 | 29.96842 | 128.60917 | 39106 ft | 591 kts | 47° |
| 2026-05-04 05:20 | 30.01926 | 128.68385 | 39103 ft | 590 kts | 47° |
| 2026-05-04 05:21 | 30.06953 | 128.75783 | 39099 ft | 588 kts | 47° |
| 2026-05-04 05:21 | 30.12009 | 128.83232 | 39100 ft | 588 kts | 47° |
| 2026-05-04 05:22 | 30.17057 | 128.90681 | 39111 ft | 588 kts | 47° |
| 2026-05-04 05:22 | 30.22071 | 128.98096 | 39089 ft | 589 kts | 47° |
| 2026-05-04 05:23 | 30.27121 | 129.05574 | 39088 ft | 589 kts | 47° |
| 2026-05-04 05:23 | 30.32160 | 129.13056 | 39091 ft | 589 kts | 47° |
| 2026-05-04 05:24 | 30.37124 | 129.20442 | 39087 ft | 590 kts | 47° |
| 2026-05-04 05:24 | 30.42202 | 129.28010 | 39087 ft | 590 kts | 47° |
| 2026-05-04 05:25 | 30.47206 | 129.35481 | 39083 ft | 591 kts | 47° |
| 2026-05-04 05:25 | 30.52249 | 129.43025 | 39087 ft | 591 kts | 47° |
| 2026-05-04 05:26 | 30.57277 | 129.50561 | 39081 ft | 591 kts | 47° |
| 2026-05-04 05:26 | 30.62317 | 129.58126 | 39068 ft | 592 kts | 47° |
| 2026-05-04 05:28 | 30.82416 | 129.88453 | 39073 ft | 592 kts | 47° |
| 2026-05-04 05:29 | 30.87058 | 129.96419 | 39067 ft | 596 kts | 53° |
| 2026-05-04 05:29 | 30.91467 | 130.04617 | 39060 ft | 598 kts | 54° |
| 2026-05-04 05:31 | 31.08873 | 130.37599 | 39061 ft | 596 kts | 54° |
| 2026-05-04 05:32 | 31.13217 | 130.45847 | 39075 ft | 597 kts | 55° |
| 2026-05-04 05:33 | 31.19715 | 130.58209 | 39055 ft | 597 kts | 55° |
| 2026-05-04 05:33 | 31.24052 | 130.66488 | 39052 ft | 597 kts | 55° |
| 2026-05-04 05:34 | 31.28386 | 130.74789 | 39043 ft | 598 kts | 55° |
| 2026-05-04 05:34 | 31.32718 | 130.83107 | 39037 ft | 599 kts | 56° |
| 2026-05-04 05:35 | 31.37049 | 130.91435 | 39018 ft | 599 kts | 55° |
| 2026-05-04 05:35 | 31.41351 | 130.99725 | 39036 ft | 597 kts | 55° |
| 2026-05-04 05:36 | 31.45652 | 131.08028 | 39030 ft | 596 kts | 55° |
| 2026-05-04 05:36 | 31.49952 | 131.16344 | 39041 ft | 596 kts | 55° |
| 2026-05-04 05:37 | 31.54252 | 131.24678 | 39029 ft | 598 kts | 56° |
| 2026-05-04 05:37 | 31.58552 | 131.33034 | 39024 ft | 598 kts | 56° |
| 2026-05-04 05:38 | 31.64955 | 131.45523 | 38993 ft | 599 kts | 56° |
| 2026-05-04 05:38 | 31.69259 | 131.53933 | 38986 ft | 599 kts | 56° |
| 2026-05-04 05:39 | 31.75665 | 131.66496 | 38990 ft | 599 kts | 56° |
| 2026-05-04 05:40 | 31.82090 | 131.79141 | 38981 ft | 600 kts | 56° |
| 2026-05-04 05:40 | 31.86360 | 131.87567 | 39012 ft | 599 kts | 56° |
| 2026-05-04 05:41 | 31.90612 | 131.95974 | 39002 ft | 601 kts | 56° |
| 2026-05-04 05:41 | 31.94883 | 132.04442 | 38991 ft | 600 kts | 56° |
| 2026-05-04 05:42 | 31.99142 | 132.12903 | 38999 ft | 601 kts | 56° |
| 2026-05-04 05:42 | 32.03398 | 132.21373 | 38969 ft | 601 kts | 56° |
| 2026-05-04 05:43 | 32.07645 | 132.29848 | 39013 ft | 599 kts | 56° |
| 2026-05-04 05:45 | 32.23218 | 132.64779 | 38968 ft | 603 kts | 62° |
| 2026-05-04 05:47 | 32.38112 | 133.00250 | 38992 ft | 604 kts | 62° |
| 2026-05-04 05:47 | 32.41844 | 133.09182 | 38963 ft | 605 kts | 62° |
| 2026-05-04 05:48 | 32.45566 | 133.18115 | 38965 ft | 604 kts | 62° |
| 2026-05-04 05:48 | 32.49278 | 133.27047 | 38959 ft | 604 kts | 62° |
| 2026-05-04 05:49 | 32.52974 | 133.35961 | 38962 ft | 602 kts | 62° |
| 2026-05-04 05:49 | 32.56639 | 133.44818 | 38923 ft | 601 kts | 62° |
| 2026-05-04 05:51 | 32.71312 | 133.80516 | 38943 ft | 601 kts | 62° |
| 2026-05-04 05:52 | 32.74967 | 133.89453 | 38931 ft | 599 kts | 63° |
| 2026-05-04 05:52 | 32.78576 | 133.98312 | 38931 ft | 600 kts | 63° |
| 2026-05-04 05:54 | 32.89357 | 134.35816 | 38916 ft | 598 kts | 75° |
| 2026-05-04 05:55 | 32.91690 | 134.45304 | 38927 ft | 597 kts | 75° |
| 2026-05-04 05:55 | 32.94015 | 134.54729 | 38914 ft | 596 kts | 75° |
| 2026-05-04 05:56 | 32.96349 | 134.64203 | 38892 ft | 595 kts | 75° |
| 2026-05-04 05:56 | 32.98671 | 134.73672 | 38940 ft | 594 kts | 76° |
| 2026-05-04 05:57 | 33.00981 | 134.83145 | 38898 ft | 596 kts | 76° |
| 2026-05-04 05:57 | 33.03276 | 134.92589 | 38893 ft | 597 kts | 76° |
| 2026-05-04 05:58 | 33.05586 | 135.02106 | 38878 ft | 597 kts | 76° |
| 2026-05-04 05:58 | 33.07892 | 135.11643 | 38885 ft | 596 kts | 76° |
| 2026-05-04 05:59 | 33.10178 | 135.21141 | 38883 ft | 596 kts | 76° |
| 2026-05-04 05:59 | 33.12341 | 135.30610 | 38878 ft | 595 kts | 78° |
| 2026-05-04 06:00 | 33.14416 | 135.40191 | 38870 ft | 595 kts | 78° |
| 2026-05-04 06:00 | 33.16493 | 135.49768 | 38870 ft | 596 kts | 78° |
| 2026-05-04 06:01 | 33.18587 | 135.59338 | 38859 ft | 595 kts | 78° |
| 2026-05-04 06:03 | 33.26901 | 135.97542 | 38848 ft | 592 kts | 78° |
| 2026-05-04 06:05 | 33.36050 | 136.40392 | 38841 ft | 591 kts | 78° |
| 2026-05-04 06:06 | 33.38067 | 136.49936 | 38838 ft | 591 kts | 78° |
| 2026-05-04 06:06 | 33.40071 | 136.59465 | 38827 ft | 591 kts | 78° |
| 2026-05-04 06:07 | 33.42060 | 136.68954 | 38830 ft | 590 kts | 78° |
| 2026-05-04 06:07 | 33.44047 | 136.78478 | 38828 ft | 589 kts | 78° |
| 2026-05-04 06:08 | 33.46027 | 136.88004 | 38828 ft | 589 kts | 78° |
| 2026-05-04 06:08 | 33.47666 | 136.95920 | 38823 ft | 588 kts | 79° |
| 2026-05-04 06:09 | 33.49631 | 137.05449 | 38821 ft | 588 kts | 79° |